首页
METAR-TAF:

METAR-TAF

机场 :

尼亞姆圖古, 多哥

纬度: 09-46N, 经度: 001-06E, 海拔: 342米

当前天气观测

该预报发布于4小时和3分钟前的10:00 UTC
风速11节,风向
温度 28°C
湿度 16%
气压 1019 hPa
能见度10公里或以上
1500米以下无云,无积雨云

METAR: DXNG 111000Z 08011KT CAVOK 28/00 Q1019 NOSIG

时间: 14:03 (14:03 UTC)

预报

该预报发布于9小时和3分钟前的05:00 UTC
预报有效从11日的 06点(UTC)到 12日的 06点(UTC)
风速10节,风向东转东北
能见度10公里或以上
1500米以下无云,无积雨云

TAF: DXNG 110500Z 1106/1206 07010KT CAVOK

超过4000个机场的气象观测和天气预报(METAR&TAF报告)。

可查询的气象台以黄色和红色小点在地图上表示。

将鼠标移到小点上方,可查看气象台名称。

然后点击查看天气观测和预报。

如需切换地图:点击带黑十字的绿色按钮放大地图;点击带横线的绿色按钮缩小地图;或者点击绿色箭头查看邻近地区的地图。


METAR-TAF: